Search for airport 
image banner adimage banner adimage banner ad
image banner ad

PN35 - Flying R

Located in Harrisonville, United States

ICAO - PN35, IATA -

Data provided by Airmate  

General information

Coordinates: N40°0'0" W78°4'59"
Elevation is 960 feet MSL.
Magnetic variation is -09° East
View others Airports in Pennsylvania

Operational data

Special qualification required
Current time UTC:
Current local time:
Weather at : KHMZ - Bedford County ( 38 km )
METAR: KHMZ 182355Z AUTO 17005KT 10SM CLR 22/06 A3028 RMK AO2 T02170059 10256 20217
View NOTAMs / SUP AIP / TFR affecting this airport [VIEW]
Communications frequencies: [VIEW]

Runways:

RWY identifierQFULength (ft)Width (ft)SurfaceLDA (ft)
05160050GRASS
23160050GRASS

Airport contact information

Address: Harrisonville United States

Satellite view of PN35